WetterOnline ( http://www.wetteronline.de )

Wetter aktuell Mühldorf

Aktuelles Wetter: Mühldorf am Inn (410m)

6-stündlich | Neueste Meldungen
Ortszeit Temperatur Wetter
Mo, 25.06. 2:00 12.4° C leichter Regen
So, 24.06. 20:00 17.6° C bewölkt
So, 24.06. 14:00 17.7° C bedeckt
So, 24.06. 8:00 13.5° C wolkig
So, 24.06. 2:00 12.3° C bedeckt
Sa, 23.06. 20:00 16.2° C bewölkt
Sa, 23.06. 14:00 16.0° C bedeckt
Sa, 23.06. 8:00 11.9° C wolkenlos
Ortszeit Temperatur Wetter
Mo, 25.06. 3:30 12.2° C leichter Regen
Mo, 25.06. 3:20 12.2° C leichter Regen
Mo, 25.06. 3:10 12.2° C leichter Regen
Mo, 25.06. 3:00 12.2° C leichter Regen
Mo, 25.06. 2:50 12.2° C leichter Regen
Mo, 25.06. 2:40 12.1° C leichter Regen
Mo, 25.06. 2:30 12.3° C leichter Regen
Mo, 25.06. 2:00 12.4° C leichter Regen
Mo, 25.06. 1:30 12.6° C leichter Regen
Mo, 25.06. 1:00 13.2° C Regen
Mo, 25.06. 0:30 13.4° C leichter Regen
Ortszeit Relative Feuchte Sichtweite
Mo, 25.06. 2:00 92% 10 km
So, 24.06. 20:00 52% 35 km
So, 24.06. 14:00 45% 15 km
So, 24.06. 8:00 68% 16 km
So, 24.06. 2:00 72% 50 km
Sa, 23.06. 20:00 48% 55 km
Sa, 23.06. 14:00 50% 6 km
Sa, 23.06. 8:00 69% 8 km
Ortszeit Relative Feuchte Sichtweite
Mo, 25.06. 3:30 95% 7 km
Mo, 25.06. 3:20 95% -
Mo, 25.06. 3:10 95% -
Mo, 25.06. 3:00 97% 5.0 km
Mo, 25.06. 2:50 97% -
Mo, 25.06. 2:40 96% -
Mo, 25.06. 2:30 95% 9 km
Mo, 25.06. 2:00 92% 10 km
Mo, 25.06. 1:30 89% 13 km
Mo, 25.06. 1:00 82% 5.0 km
Mo, 25.06. 0:30 89% 26 km
Ortszeit Niederschlagsmenge Niederschlagsart
Mo, 25.06. 2:00 3 l/m2 in 6 Std. Regen
So, 24.06. 20:00 0.0 l/m2 in 12 Std. -
So, 24.06. 14:00 0.0 l/m2 in 6 Std. -
So, 24.06. 8:00 0.1 l/m2 in 12 Std. -
So, 24.06. 2:00 0.1 l/m2 in 6 Std. Regen
Sa, 23.06. 20:00 0.0 l/m2 in 12 Std. -
Sa, 23.06. 14:00 0.0 l/m2 in 6 Std. -
Sa, 23.06. 8:00 0.1 l/m2 in 12 Std. -
Ortszeit Niederschlagsmenge Niederschlagsart
Mo, 25.06. 3:30 0.4 l/m2 in 1 Std. -
Mo, 25.06. 3:20 keine Meldung -
Mo, 25.06. 3:10 keine Meldung -
Mo, 25.06. 3:00 0.5 l/m2 in 1 Std. Regen
Mo, 25.06. 2:50 keine Meldung -
Mo, 25.06. 2:40 keine Meldung -
Mo, 25.06. 2:30 0.2 l/m2 in 1 Std. -
Mo, 25.06. 2:00 1.5 l/m2 in 1 Std. Regen
Mo, 25.06. 1:30 1.4 l/m2 in 1 Std. -
Mo, 25.06. 1:00 1.1 l/m2 in 1 Std. Regen
Mo, 25.06. 0:30 0.1 l/m2 in 1 Std. -
Ortszeit Stärke Spitze Richtung
km/h Bft. km/h Grad Sektor
Mo, 25.06. 2:00 4 1 25 280° W
So, 24.06. 20:00 7 2 18 340° N
So, 24.06. 14:00 7 2 20 350° N
So, 24.06. 8:00 7 2 11 280° W
So, 24.06. 2:00 4 1 25 240° SW
Sa, 23.06. 20:00 11 2 36 320° NW
Sa, 23.06. 14:00 17 3 35 300° NW
Sa, 23.06. 8:00 11 2 14 290° W
Ortszeit Stärke Spitze Richtung
km/h Bft. km/h Grad Sektor
Mo, 25.06. 3:30 4 1 7 240° SW
Mo, 25.06. 3:20 4 1 - 240° SW
Mo, 25.06. 3:10 4 1 - 240° SW
Mo, 25.06. 3:00 0 0 4 - -
Mo, 25.06. 2:50 0 0 - 200° S
Mo, 25.06. 2:40 2 1 - 340° N
Mo, 25.06. 2:30 4 1 4 270° W
Mo, 25.06. 2:00 4 1 18 280° W
Mo, 25.06. 1:30 7 2 18 330° NW
Mo, 25.06. 1:00 11 2 25 360° N
Mo, 25.06. 0:30 4 1 4 270° W
Ortszeit Untergrenze Bedeckung Gattung
total tief tief mittel hoch
Mo, 25.06. 2:00 1800 m 8/8 8/8 - - -
So, 24.06. 20:00 2100 m 8/8 6/8 - - -
So, 24.06. 14:00 1440 m 8/8 8/8 - - -
So, 24.06. 8:00 2100 m 7/8 2/8 - - -
So, 24.06. 2:00 1410 m 8/8 8/8 - - -
Sa, 23.06. 20:00 1500 m 8/8 5/8 - - -
Sa, 23.06. 14:00 1500 m 8/8 8/8 - - -
Sa, 23.06. 8:00 - 0/8 0/8 - - -
Ortszeit Bedeckungsgrad in Achtel und Wolkenuntergrenze
Mo, 25.06. 3:30 8(1500m)
Mo, 25.06. 3:20 8(1500m)
Mo, 25.06. 3:10 8(1500m)
Mo, 25.06. 3:00 5(1470m) 8(1800m)
Mo, 25.06. 2:50 5(1470m) 8(1800m)
Mo, 25.06. 2:40 8(1500m)
Mo, 25.06. 2:30 7(1800m)
Mo, 25.06. 2:00 8(1800m)
Mo, 25.06. 1:30 2(1110m) 3(1350m) 8(1500m)
Mo, 25.06. 1:00 5(1320m) 7(1500m) 7(1800m)
Mo, 25.06. 0:30 2(1500m) 8(1800m)
Ortszeit Luftdruck NN (hPa) Tendenz (hPa in 3 Std.)
Mo, 25.06. 2:00 1020 + 0,2
So, 24.06. 20:00 1018 - 0,6
So, 24.06. 14:00 1020 - 0,8
So, 24.06. 8:00 1022 0,0
So, 24.06. 2:00 1024 0,0
Sa, 23.06. 20:00 1022 - 0,2
Sa, 23.06. 14:00 1023 - 0,9
Sa, 23.06. 8:00 1025 + 0,1
Ortszeit Luftdruck NN (hPa) Tendenz (hPa in 3 Std.)
Mo, 25.06. 3:30 1020 + 0,3
Mo, 25.06. 3:20 1020 keine Meldung
Mo, 25.06. 3:10 1020 keine Meldung
Mo, 25.06. 3:00 1020 + 0,3
Mo, 25.06. 2:50 1020 keine Meldung
Mo, 25.06. 2:40 1020 keine Meldung
Mo, 25.06. 2:30 1019 + 0,2
Mo, 25.06. 2:00 1020 + 0,2
Mo, 25.06. 1:30 1020 + 0,3
Mo, 25.06. 1:00 1020 + 0,3
Mo, 25.06. 0:30 1019 - 0,1
Ortszeit Schneehöhe (cm)
Mo, 25.06. 2:00 -
So, 24.06. 20:00 -
So, 24.06. 14:00 -
So, 24.06. 8:00 -
So, 24.06. 2:00 -
Sa, 23.06. 20:00 -
Sa, 23.06. 14:00 -
Sa, 23.06. 8:00 -
Ortszeit Schneehöhe (cm)
Mo, 25.06. 3:30 -
Mo, 25.06. 3:20 -
Mo, 25.06. 3:10 -
Mo, 25.06. 3:00 -
Mo, 25.06. 2:50 -
Mo, 25.06. 2:40 -
Mo, 25.06. 2:30 -
Mo, 25.06. 2:00 -
Mo, 25.06. 1:30 -
Mo, 25.06. 1:00 -
Mo, 25.06. 0:30 -
Link zu dieser Seite / Seite empfehlen

Das Wetter in ...